Estación Meteorológica Peña el Pijo (Robertgarden) [ 09/22/18 22:44:25 CEST ]

Fecha Hora Presion(HPa) Temp (°C) Humedad % Rocio (°C) Viento ( m/s) Direccion Lluvia 1Hora(mm) Lluvia 24H(mm) LLuvia Total(mm)
2018-Mar-15 01:01:46 992.500 11.7 67 5.8 4.3 NNW 1.03 1.03 147.63
2018-Mar-15 02:04:08 992.600 12.1 65 5.7 3.1 NNW   1.03 147.63
2018-Mar-15 03:01:35 991.900 11.3 69 5.8 2.3 WNW   1.03 147.63
2018-Mar-15 04:01:49 992.000 11.1 71 6.1 1.7 NNW   1.03 147.63
2018-Mar-15 05:01:39 993.000 7.9 71 3.0       1.03 147.63
2018-Mar-15 06:01:34 993.400 6.7 73 2.2       1.03 147.63
2018-Mar-15 07:01:32 993.800 6.1 75 2.0 1.1 WNW   1.03 147.63
2018-Mar-15 08:01:51 994.500 5.1 77 1.4 2.0 WNW   1.03 147.63
2018-Mar-15 09:01:53 994.400 5.3 80 2.1 2.5 NNW 0.51 1.55 148.14
2018-Mar-15 10:01:55 994.600 8.7 70 3.5       1.55 148.14
2018-Mar-15 11:01:43 994.300 7.9 70 2.8       1.55 148.14
2018-Mar-15 12:01:42 994.900 9.7 63 3.0 3.7 NNW   1.55 148.14
2018-Mar-15 13:01:47 995.100 10.1 60 2.7 2.2 NNW   1.55 148.14
2018-Mar-15 14:01:55 995.100 10.9 55 2.2 2.4 NNW   1.55 148.14
2018-Mar-15 15:02:04 994.400 12.1 53 2.8       1.55 148.14
2018-Mar-15 16:01:45 994.300 11.9 53 2.6 1.8 NW   1.55 148.14
2018-Mar-15 17:01:47 995.000 10.3 55 1.6 2.8 WNW   1.55 148.14
2018-Mar-15 18:01:45 995.100 8.5 63 1.8 1.1 N   1.55 148.14
2018-Mar-15 19:01:54 995.300 7.5 62 0.7       1.55 148.14
2018-Mar-15 20:01:49 996.200 6.4 70 1.4       1.55 148.14
2018-Mar-15 21:02:00 996.500 6.1 72 1.4       1.55 148.14
2018-Mar-15 22:01:57 997.000 5.3 75 1.2       1.55 148.14
2018-Mar-15 23:01:52 997.200 4.9 76 1.0       1.55 148.14

Temperatura Máxima:12°    Temperatura Mínima:
Presión Máxima:997.200 Hpa    Presión Mínima:991.900 Hpa


Volver